createdAt,value
2018-12-30T00:00:07.706Z,31.3
2018-12-30T00:00:57.752Z,31.2
2018-12-30T00:01:48.460Z,30.9
2018-12-30T00:02:43.692Z,30.8
2018-12-30T00:03:34.377Z,30.6
2018-12-30T00:04:22.388Z,30.4
2018-12-30T00:05:12.305Z,29.6
2018-12-30T00:06:04.049Z,30.3
2018-12-30T00:06:52.516Z,31.1
2018-12-30T00:07:37.576Z,31.6
2018-12-30T00:08:29.878Z,31.8
2018-12-30T00:09:18.872Z,32.1
2018-12-30T00:10:07.715Z,32.3
2018-12-30T00:11:00.129Z,32.4
2018-12-30T00:11:47.211Z,32.6
2018-12-30T00:12:38.571Z,32.8
2018-12-30T00:13:28.431Z,33.1
2018-12-30T00:14:21.711Z,33.2
2018-12-30T00:15:10.671Z,33.4
2018-12-30T00:33:14.474Z,30.8
2018-12-30T00:34:05.234Z,30.6
2018-12-30T00:34:55.135Z,30.2
2018-12-30T00:35:47.074Z,29.6
2018-12-30T00:36:35.382Z,30.4
2018-12-30T00:37:24.787Z,31.2
2018-12-30T00:38:16.027Z,31.5
2018-12-30T00:39:08.494Z,31.8
2018-12-30T00:39:56.395Z,32
2018-12-30T00:40:45.954Z,32.2
2018-12-30T00:41:36.362Z,32.4
2018-12-30T00:42:26.497Z,32.7
2018-12-30T00:43:17.104Z,32.9
2018-12-30T00:44:04.748Z,33.1
2018-12-30T00:44:55.913Z,33.3
2018-12-30T00:45:46.529Z,33.4
2018-12-30T00:46:35.552Z,33.6
2018-12-30T00:47:25.114Z,33.7
2018-12-30T00:48:18.742Z,33.8
2018-12-30T00:49:05.451Z,33.9
2018-12-30T00:49:55.681Z,34.1
2018-12-30T00:50:46.606Z,34.2
2018-12-30T00:51:38.886Z,34.3
2018-12-30T00:52:27.054Z,33.8
2018-12-30T00:53:16.001Z,33.5
2018-12-30T00:54:07.023Z,33.1
2018-12-30T00:54:58.771Z,32.8
2018-12-30T00:55:46.801Z,32.5
2018-12-30T00:56:37.520Z,32.3
2018-12-30T00:57:27.213Z,32.1
2018-12-30T00:58:16.006Z,31.9
2018-12-30T00:59:07.521Z,31.8
2018-12-30T00:59:57.403Z,31.6
2018-12-30T01:00:48.253Z,31.4
2018-12-30T01:01:37.368Z,31.4
2018-12-30T01:02:27.733Z,31.1
2018-12-30T01:03:17.778Z,30.9
2018-12-30T01:04:09.888Z,30.8
2018-12-30T01:04:57.300Z,30.6
2018-12-30T01:05:47.159Z,30.4
2018-12-30T01:06:37.818Z,29.5
2018-12-30T01:07:29.620Z,30.3
2018-12-30T01:08:17.055Z,31.1
2018-12-30T01:09:07.675Z,31.5
2018-12-30T01:09:58.437Z,31.8
2018-12-30T01:10:48.023Z,31.9
2018-12-30T01:11:38.078Z,32.2
2018-12-30T01:12:28.538Z,32.4
2018-12-30T01:13:19.690Z,32.6
2018-12-30T01:14:07.702Z,32.9
2018-12-30T01:14:58.112Z,33.1
2018-12-30T01:15:48.167Z,33.3
2018-12-30T01:16:40.487Z,33.4
2018-12-30T01:17:27.929Z,33.6
2018-12-30T01:18:18.508Z,33.7
2018-12-30T01:19:08.614Z,33.9
2018-12-30T01:19:59.801Z,33.9
2018-12-30T01:20:48.439Z,34.1
2018-12-30T01:21:39.132Z,34.2
2018-12-30T01:22:42.729Z,34.1
2018-12-30T01:23:18.426Z,33.6
2018-12-30T01:24:08.914Z,33.4
2018-12-30T01:24:59.571Z,33
2018-12-30T01:25:51.824Z,32.8
2018-12-30T01:26:38.776Z,32.5
2018-12-30T01:27:28.635Z,32.3
2018-12-30T01:28:18.379Z,32.1
2018-12-30T01:29:11.119Z,31.9
2018-12-30T01:29:59.818Z,31.8
2018-12-30T01:30:49.899Z,31.6
2018-12-30T01:31:39.788Z,31.4
2018-12-30T01:32:30.876Z,31.3
2018-12-30T01:33:17.110Z,31
2018-12-30T01:34:09.955Z,30.8
2018-12-30T01:35:00.246Z,30.7
2018-12-30T01:35:51.078Z,30.5
2018-12-30T01:36:38.745Z,29.9
2018-12-30T01:37:29.774Z,29.8
2018-12-30T01:38:20.557Z,30.7
2018-12-30T01:39:09.417Z,31.4
2018-12-30T01:40:00.816Z,31.7
2018-12-30T01:40:49.767Z,31.9
2018-12-30T01:41:42.668Z,32.1
2018-12-30T01:42:29.640Z,32.3
2018-12-30T01:43:20.205Z,32.5
2018-12-30T01:44:09.890Z,31.6
2018-12-30T01:45:02.930Z,30.6
2018-12-30T01:45:50.404Z,28.9
2018-12-30T01:46:41.299Z,27.4
2018-12-30T01:47:29.955Z,25.7
2018-12-30T01:48:20.703Z,24.3
2018-12-30T01:49:09.822Z,22.9
2018-12-30T01:50:01.542Z,22.4
2018-12-30T01:50:51.260Z,22.5
2018-12-30T01:51:44.704Z,23.9
2018-12-30T01:52:31.177Z,25.8
2018-12-30T01:53:20.944Z,27.1
2018-12-30T01:54:13.209Z,28.5
2018-12-30T01:55:00.799Z,29.8
2018-12-30T01:55:50.899Z,30.6
2018-12-30T01:56:41.329Z,31.1
2018-12-30T01:57:32.671Z,31.5
2018-12-30T01:58:21.588Z,31.9
2018-12-30T01:59:11.304Z,32.1
2018-12-30T02:00:02.080Z,32.4
2018-12-30T02:00:51.924Z,32.7
2018-12-30T02:01:42.320Z,33
2018-12-30T02:02:30.958Z,33.2
2018-12-30T02:03:21.826Z,33.4
2018-12-30T02:04:11.295Z,33.6
2018-12-30T02:05:01.778Z,33.7
2018-12-30T02:05:51.723Z,33.8
2018-12-30T02:06:41.826Z,34
2018-12-30T02:07:31.190Z,34.1
2018-12-30T02:08:21.533Z,34.2
2018-12-30T02:09:11.877Z,34.3
2018-12-30T02:10:03.123Z,33.8
2018-12-30T02:10:50.944Z,33.6
2018-12-30T02:11:43.233Z,33.3
2018-12-30T02:12:32.150Z,32.9
2018-12-30T02:13:24.223Z,32.7
2018-12-30T02:14:11.932Z,32.5
2018-12-30T02:15:02.712Z,32.3
2018-12-30T02:15:51.500Z,32.1
2018-12-30T02:16:44.647Z,31.9
2018-12-30T02:17:31.832Z,31.8
2018-12-30T02:18:21.976Z,31.6
2018-12-30T02:19:12.623Z,31.4
2018-12-30T02:20:03.939Z,31.4
2018-12-30T02:20:52.762Z,31
2018-12-30T02:21:50.230Z,30.8
2018-12-30T02:22:31.249Z,30.7
2018-12-30T02:23:22.874Z,30.5
2018-12-30T02:24:13.207Z,29.5
2018-12-30T02:25:03.624Z,30.3
2018-12-30T02:25:53.667Z,31.1
2018-12-30T02:26:42.000Z,31.6
2018-12-30T02:27:33.987Z,31.8
2018-12-30T02:28:22.989Z,32
2018-12-30T02:29:13.881Z,32.2
2018-12-30T02:30:03.077Z,32.4
2018-12-30T02:30:53.385Z,32.6
2018-12-30T02:31:43.578Z,32.8
2018-12-30T02:32:35.859Z,33
2018-12-30T02:33:23.779Z,33.3
2018-12-30T02:34:13.203Z,33.4
2018-12-30T02:35:04.099Z,33.6
2018-12-30T02:35:55.638Z,33.7
2018-12-30T02:36:43.338Z,33.8
2018-12-30T02:37:33.663Z,33.9
2018-12-30T02:38:22.945Z,34
2018-12-30T02:39:15.906Z,34.1
2018-12-30T02:40:04.714Z,34.2
2018-12-30T02:40:53.896Z,33.9
2018-12-30T02:41:43.302Z,33.6
2018-12-30T02:42:33.099Z,33.3
2018-12-30T02:43:25.077Z,32.9
2018-12-30T02:44:14.283Z,32.6
2018-12-30T02:45:04.824Z,32.4
2018-12-30T02:45:54.678Z,32.1
2018-12-30T02:46:44.831Z,31.9
2018-12-30T02:47:34.810Z,31.8
2018-12-30T02:48:25.971Z,31.6
2018-12-30T02:49:15.092Z,31.4
2018-12-30T02:50:04.155Z,31.3
2018-12-30T02:50:54.517Z,31.3
2018-12-30T02:51:56.378Z,31
2018-12-30T02:52:34.698Z,30.8
2018-12-30T02:53:25.215Z,30.6
2018-12-30T02:54:14.763Z,30.4
2018-12-30T02:55:07.808Z,29.5
2018-12-30T02:55:54.930Z,30.3
2018-12-30T02:56:45.183Z,31
2018-12-30T02:57:35.558Z,31.4
2018-12-30T02:58:27.355Z,31.7
2018-12-30T02:59:14.569Z,31.9
2018-12-30T03:00:06.061Z,32.1
2018-12-30T03:00:55.450Z,32.3
2018-12-30T03:01:48.851Z,32.6
2018-12-30T03:02:36.873Z,32.8
2018-12-30T03:03:25.967Z,33
2018-12-30T03:04:15.623Z,33.1
2018-12-30T03:05:07.713Z,33.3
2018-12-30T03:05:55.423Z,33.4
2018-12-30T03:06:45.829Z,33.6
2018-12-30T03:07:36.068Z,33.8
2018-12-30T03:08:25.411Z,33.9
2018-12-30T03:09:15.751Z,33.9
2018-12-30T03:10:06.396Z,34.1
2018-12-30T03:10:56.854Z,34.1
2018-12-30T03:11:46.409Z,34.3
2018-12-30T03:12:37.327Z,33.8
2018-12-30T03:13:26.549Z,33.5
2018-12-30T03:14:16.584Z,33.1
2018-12-30T03:15:05.329Z,32.8
2018-12-30T03:15:56.644Z,32.6
2018-12-30T03:16:46.680Z,32.3
2018-12-30T03:17:38.541Z,32.1
2018-12-30T03:18:26.317Z,31.9
2018-12-30T03:19:16.640Z,31.8
2018-12-30T03:20:06.407Z,31.6
2018-12-30T03:20:57.873Z,31.4
2018-12-30T03:21:46.792Z,31.3
2018-12-30T03:22:37.463Z,31.2
2018-12-30T03:23:26.648Z,30.9
2018-12-30T03:24:16.085Z,30.8
2018-12-30T03:25:07.269Z,30.6
2018-12-30T03:25:57.829Z,30.4
2018-12-30T03:26:47.137Z,29.5
2018-12-30T03:27:37.416Z,30.3
2018-12-30T03:28:26.078Z,31.1
2018-12-30T03:29:16.717Z,31.4
2018-12-30T03:30:07.510Z,31.7
2018-12-30T03:30:56.843Z,31.9
2018-12-30T03:31:46.865Z,32.1
2018-12-30T03:32:38.322Z,32.3
2018-12-30T03:33:28.122Z,32.6
2018-12-30T03:34:18.201Z,32.8
2018-12-30T03:35:07.526Z,32.2
2018-12-30T03:35:57.791Z,31.3
2018-12-30T03:36:48.308Z,29.6
2018-12-30T03:37:37.683Z,27.9
2018-12-30T03:38:27.337Z,26.9
2018-12-30T03:39:17.352Z,26.6
2018-12-30T03:40:08.358Z,27.4
2018-12-30T03:40:56.725Z,28.8
2018-12-30T03:41:48.106Z,29.9
2018-12-30T03:42:38.514Z,30.8
2018-12-30T03:43:28.198Z,31.3
2018-12-30T03:44:17.770Z,31.8
2018-12-30T03:45:07.427Z,32.1
2018-12-30T03:45:57.544Z,32.4
2018-12-30T03:46:48.011Z,32.6
2018-12-30T03:47:37.973Z,32.9
2018-12-30T03:48:28.512Z,33.2
2018-12-30T03:49:17.807Z,33.4
2018-12-30T03:50:08.877Z,33.6
2018-12-30T03:50:58.847Z,33.7
2018-12-30T03:51:48.190Z,33.8
2018-12-30T03:52:39.690Z,33.9
2018-12-30T03:53:29.196Z,34.1
2018-12-30T03:54:18.964Z,34.2
2018-12-30T03:55:09.637Z,34.3
2018-12-30T03:55:58.775Z,33.8
2018-12-30T03:56:49.724Z,33.5
2018-12-30T03:57:38.049Z,33.1
2018-12-30T03:58:28.699Z,32.8
2018-12-30T03:59:17.934Z,32.5
2018-12-30T04:00:08.970Z,32.3
2018-12-30T04:00:59.172Z,32.1
2018-12-30T04:01:49.152Z,31.9
2018-12-30T04:02:42.784Z,31.7
2018-12-30T04:03:29.925Z,31.6
2018-12-30T04:04:19.957Z,31.4
2018-12-30T04:05:09.721Z,31.3
2018-12-30T04:05:59.346Z,31.1
2018-12-30T04:06:49.646Z,30.9
2018-12-30T04:07:39.340Z,30.7
2018-12-30T04:08:29.228Z,30.6
2018-12-30T04:09:19.182Z,30
2018-12-30T04:10:10.049Z,29.8
2018-12-30T04:11:00.506Z,30.6
2018-12-30T04:11:49.969Z,31.3
2018-12-30T04:12:39.347Z,31.6
2018-12-30T04:13:30.351Z,31.8
2018-12-30T04:14:20.612Z,32.1
2018-12-30T04:15:11.236Z,32.3
2018-12-30T04:15:59.610Z,32.4
2018-12-30T04:16:49.870Z,32.7
2018-12-30T04:17:39.907Z,32.9
2018-12-30T04:18:30.686Z,33.1
2018-12-30T04:19:20.659Z,33.3
2018-12-30T04:20:10.653Z,33.4
2018-12-30T04:21:00.243Z,33.6
2018-12-30T04:21:51.163Z,33.7
2018-12-30T04:22:42.188Z,33.8
2018-12-30T04:23:31.481Z,33.9
2018-12-30T04:24:20.742Z,34.1
2018-12-30T04:25:11.463Z,34.1
2018-12-30T04:26:02.333Z,34.3
2018-12-30T04:26:50.349Z,33.8
2018-12-30T04:27:40.925Z,33.5
2018-12-30T04:28:30.779Z,33.1
2018-12-30T04:29:21.676Z,32.8
2018-12-30T04:30:10.320Z,32.4
2018-12-30T04:31:01.281Z,32.2
2018-12-30T04:31:51.552Z,32
2018-12-30T04:32:42.138Z,31.8
2018-12-30T04:33:30.825Z,31.6
2018-12-30T04:34:22.290Z,31.4
2018-12-30T04:35:11.607Z,31.3
2018-12-30T04:36:02.406Z,31.3
2018-12-30T04:36:52.151Z,31
2018-12-30T04:37:41.666Z,30.8
2018-12-30T04:38:32.100Z,30.7
2018-12-30T04:39:21.879Z,30.5
2018-12-30T04:40:11.917Z,30
2018-12-30T04:41:02.720Z,29.7
2018-12-30T04:41:52.186Z,30.5
2018-12-30T04:42:42.690Z,31.3
2018-12-30T04:43:32.715Z,31.6
2018-12-30T04:44:22.734Z,31.8
2018-12-30T04:45:12.279Z,32
2018-12-30T05:02:34.596Z,32.1
2018-12-30T05:03:25.340Z,31.8
2018-12-30T05:04:15.499Z,31.6
2018-12-30T05:05:04.703Z,31.5
2018-12-30T05:05:55.508Z,31.3
2018-12-30T05:06:45.200Z,31.2
2018-12-30T05:07:36.002Z,31.1
2018-12-30T05:08:25.801Z,30.9
2018-12-30T05:09:14.441Z,30.7
2018-12-30T05:10:05.973Z,30.6
2018-12-30T05:10:55.427Z,30.4
2018-12-30T05:11:43.998Z,29.5
2018-12-30T05:12:36.719Z,30.1
2018-12-30T05:13:24.519Z,30.9
2018-12-30T05:14:14.746Z,31.4
2018-12-30T05:15:05.747Z,31.6
2018-12-30T05:15:54.894Z,31.9
2018-12-30T05:16:46.048Z,32.1
2018-12-30T05:17:36.584Z,32.3
2018-12-30T05:18:25.475Z,32.5
2018-12-30T05:19:15.660Z,32.8
2018-12-30T05:20:05.488Z,32.9
2018-12-30T05:20:55.295Z,33.1
2018-12-30T05:21:45.892Z,33.3
2018-12-30T05:22:43.339Z,33.4
2018-12-30T05:23:26.315Z,33.6
2018-12-30T05:24:17.098Z,33.7
2018-12-30T05:25:06.900Z,33.5
2018-12-30T05:25:56.705Z,32.5
2018-12-30T05:26:45.900Z,30.6
2018-12-30T05:27:35.987Z,28.9
2018-12-30T05:28:27.317Z,27.8
2018-12-30T05:29:16.967Z,27.7
2018-12-30T05:30:07.134Z,28.3
2018-12-30T05:30:57.050Z,29.6
2018-12-30T05:31:46.321Z,30.6
2018-12-30T05:32:37.084Z,31.2
2018-12-30T05:33:27.681Z,31.7
2018-12-30T05:34:17.619Z,32.1
2018-12-30T05:35:07.319Z,32.5
2018-12-30T05:35:59.301Z,32.8
2018-12-30T05:36:46.858Z,33.1
2018-12-30T05:37:37.867Z,33.3
2018-12-30T05:38:28.140Z,33.5
2018-12-30T05:39:17.854Z,33.7
2018-12-30T05:40:07.738Z,33.8
2018-12-30T05:40:58.261Z,33.9
2018-12-30T05:41:47.269Z,34.1
2018-12-30T05:42:36.449Z,34.2
2018-12-30T05:43:26.832Z,34
2018-12-30T05:44:17.469Z,33.6
2018-12-30T05:45:08.050Z,33.3
2018-12-30T05:45:58.706Z,32.9
2018-12-30T05:46:47.813Z,32.6
2018-12-30T05:47:38.165Z,32.3
2018-12-30T05:48:28.498Z,32.1
2018-12-30T05:49:16.856Z,31.9
2018-12-30T05:50:08.735Z,31.7
2018-12-30T05:50:58.448Z,31.5
2018-12-30T05:51:48.440Z,31.4
2018-12-30T05:52:45.908Z,31.3
2018-12-30T05:53:29.311Z,31.1
2018-12-30T05:54:18.961Z,30.9
2018-12-30T05:55:09.001Z,30.7
2018-12-30T05:55:58.745Z,30.6
2018-12-30T05:56:48.023Z,30.4
2018-12-30T05:57:39.107Z,29.6
2018-12-30T05:58:28.380Z,30
2018-12-30T05:59:17.912Z,30.8
2018-12-30T06:00:08.278Z,31.4
2018-12-30T06:00:58.225Z,31.6
2018-12-30T06:01:48.581Z,31.9
2018-12-30T06:02:38.938Z,32.1
2018-12-30T06:03:28.524Z,32.3
2018-12-30T06:04:19.254Z,32.5
2018-12-30T06:05:09.445Z,32.8
2018-12-30T06:05:58.962Z,33
2018-12-30T06:06:48.679Z,33.1
2018-12-30T06:07:39.419Z,33.3
2018-12-30T06:08:29.562Z,33.4
2018-12-30T06:09:20.246Z,33.6
2018-12-30T06:10:09.831Z,33.8
2018-12-30T06:10:58.948Z,33.9
2018-12-30T06:11:49.359Z,34
2018-12-30T06:12:39.848Z,34.1
2018-12-30T06:13:30.224Z,34.2
2018-12-30T06:14:20.564Z,34.3
2018-12-30T06:15:10.346Z,33.7
2018-12-30T06:16:00.119Z,33.4
2018-12-30T06:16:49.666Z,33.1
2018-12-30T06:17:39.914Z,32.8
2018-12-30T06:18:29.098Z,32.4
2018-12-30T06:19:19.718Z,32.3
2018-12-30T06:20:11.423Z,32
2018-12-30T06:21:00.741Z,31.8
2018-12-30T06:21:50.753Z,31.6
2018-12-30T06:22:40.383Z,31.4
2018-12-30T06:23:30.563Z,31.3
2018-12-30T06:24:20.870Z,31.3
2018-12-30T06:25:09.851Z,31
2018-12-30T06:26:01.085Z,30.8
2018-12-30T06:26:51.133Z,30.6
2018-12-30T06:27:40.317Z,30.5
2018-12-30T06:28:29.875Z,30.1
2018-12-30T06:29:20.767Z,29.6
2018-12-30T06:30:11.625Z,30.4
2018-12-30T06:31:01.050Z,31.2
2018-12-30T06:31:50.037Z,31.5
2018-12-30T06:32:40.679Z,31.8
2018-12-30T06:33:31.672Z,32
2018-12-30T06:34:21.433Z,32.2
2018-12-30T06:35:11.563Z,32.4
2018-12-30T06:36:00.432Z,32.6
2018-12-30T06:36:51.152Z,32.9
2018-12-30T06:37:41.377Z,33.1
2018-12-30T06:38:31.712Z,33.3
2018-12-30T06:39:22.012Z,33.4
2018-12-30T06:40:19.019Z,33.6
2018-12-30T06:41:00.256Z,33.7
2018-12-30T06:41:51.655Z,33.8
2018-12-30T06:42:41.617Z,33.9
2018-12-30T06:43:31.387Z,34
2018-12-30T06:44:22.083Z,34.1
2018-12-30T06:45:11.567Z,34.3
2018-12-30T06:46:02.764Z,33.8
2018-12-30T06:46:51.683Z,33.5
2018-12-30T06:47:42.048Z,33.1
2018-12-30T06:48:31.458Z,32.8
2018-12-30T06:49:22.409Z,32.5
2018-12-30T06:50:13.014Z,32.3
2018-12-30T06:51:03.078Z,32.1
2018-12-30T06:51:52.755Z,31.9
2018-12-30T06:52:42.106Z,31.7
2018-12-30T06:53:32.479Z,31.6
2018-12-30T06:54:23.068Z,31.4
2018-12-30T06:55:12.793Z,31.3
2018-12-30T06:56:02.601Z,31.1
2018-12-30T06:56:51.906Z,30.9
2018-12-30T06:57:43.206Z,30.8
2018-12-30T06:58:31.913Z,30.6
2018-12-30T06:59:21.992Z,30.4
2018-12-30T07:00:12.613Z,29.5
2018-12-30T07:01:03.135Z,30.2
2018-12-30T07:01:53.155Z,30.9
2018-12-30T07:02:43.238Z,31.4
2018-12-30T07:03:33.058Z,31.6
2018-12-30T07:04:22.641Z,31.9
2018-12-30T07:05:13.745Z,32.2
2018-12-30T07:06:04.040Z,32.4
2018-12-30T07:06:53.885Z,32.6
2018-12-30T07:07:43.625Z,32.9
2018-12-30T07:08:33.203Z,33.1
2018-12-30T07:09:22.462Z,33.2
2018-12-30T07:10:13.295Z,33.4
2018-12-30T07:11:04.422Z,33.6
2018-12-30T07:11:54.923Z,33.7
2018-12-30T07:12:43.705Z,33.8
2018-12-30T07:13:33.144Z,33.9
2018-12-30T07:14:23.795Z,34.1
2018-12-30T07:15:12.762Z,34
2018-12-30T07:16:04.151Z,32.9
2018-12-30T07:16:54.579Z,31.3
2018-12-30T07:17:44.832Z,29.5
2018-12-30T07:18:34.409Z,27.9
2018-12-30T07:19:23.302Z,27.7
2018-12-30T07:20:14.744Z,27.7
2018-12-30T07:21:04.242Z,29.1
2018-12-30T07:21:54.322Z,30.3
2018-12-30T07:22:44.644Z,31
2018-12-30T07:23:35.234Z,31.6
2018-12-30T07:24:25.302Z,32.1
2018-12-30T07:25:14.509Z,32.4
2018-12-30T07:26:03.727Z,32.8
2018-12-30T07:26:54.127Z,33.1
2018-12-30T07:27:45.304Z,33.3
2018-12-30T07:28:33.922Z,33.6
2018-12-30T07:29:25.084Z,33.8
2018-12-30T07:30:14.569Z,33.9
2018-12-30T07:31:06.196Z,34.1
2018-12-30T07:31:55.121Z,34.2
2018-12-30T07:32:44.534Z,33.8
2018-12-30T07:33:34.288Z,33.6
2018-12-30T07:34:24.671Z,33.3
2018-12-30T07:35:15.208Z,32.8
2018-12-30T07:36:06.756Z,32.6
2018-12-30T07:36:55.008Z,32.3
2018-12-30T07:37:45.871Z,32.1
2018-12-30T07:38:35.543Z,31.9
2018-12-30T07:39:25.778Z,31.7
2018-12-30T07:40:15.276Z,31.6
2018-12-30T07:41:05.861Z,31.4
2018-12-30T07:41:56.233Z,31.3
2018-12-30T07:42:45.958Z,31.1
2018-12-30T07:43:35.786Z,30.9
2018-12-30T07:44:26.206Z,30.7
2018-12-30T07:46:05.283Z,30.4
2018-12-30T07:46:55.649Z,29.6
2018-12-30T07:47:46.097Z,30.1
2018-12-30T07:48:35.840Z,30.9
2018-12-30T07:49:25.070Z,31.4
2018-12-30T07:50:15.686Z,31.7
2018-12-30T07:51:05.462Z,31.9
2018-12-30T07:51:56.409Z,32.3
2018-12-30T07:52:46.247Z,32.5
2018-12-30T07:53:36.127Z,32.7
2018-12-30T07:54:25.695Z,32.9
2018-12-30T07:55:16.928Z,33.2
2018-12-30T07:56:05.799Z,33.4
2018-12-30T07:56:56.674Z,33.5
2018-12-30T07:57:46.994Z,33.7
2018-12-30T07:58:36.904Z,33.8
2018-12-30T07:59:26.726Z,34
2018-12-30T08:00:16.939Z,34.1
2018-12-30T08:01:06.734Z,34.2
2018-12-30T08:01:57.576Z,34.1
2018-12-30T08:02:47.839Z,33.7
2018-12-30T08:03:37.642Z,33.4
2018-12-30T08:04:27.021Z,33
2018-12-30T08:05:17.041Z,32.7
2018-12-30T08:06:07.331Z,32.4
2018-12-30T08:06:57.663Z,32.2
2018-12-30T08:07:47.168Z,32
2018-12-30T08:08:37.808Z,31.8
2018-12-30T08:09:27.010Z,31.6
2018-12-30T08:10:17.463Z,31.5
2018-12-30T08:11:07.328Z,31.4
2018-12-30T08:11:58.006Z,31.2
2018-12-30T08:12:47.762Z,31
2018-12-30T08:13:38.761Z,30.8
2018-12-30T08:14:27.068Z,30.6
2018-12-30T08:15:17.730Z,30.5
2018-12-30T08:16:06.371Z,29.7
2018-12-30T08:16:58.118Z,30.1
2018-12-30T08:17:48.455Z,30.9
2018-12-30T08:18:38.864Z,31.4
2018-12-30T08:19:27.485Z,31.7
2018-12-30T08:20:16.688Z,31.9
2018-12-30T08:21:08.130Z,32.3
2018-12-30T08:21:58.662Z,32.4
2018-12-30T08:22:48.011Z,32.7
2018-12-30T08:23:37.304Z,32.9
2018-12-30T08:24:28.695Z,33.1
2018-12-30T08:25:17.675Z,33.3
2018-12-30T08:26:08.501Z,33.5
2018-12-30T08:26:59.415Z,33.6
2018-12-30T08:27:48.663Z,33.8
2018-12-30T08:28:40.200Z,33.9
2018-12-30T08:29:28.962Z,34.1
2018-12-30T08:30:19.263Z,34.2
2018-12-30T08:31:07.612Z,34.3
2018-12-30T08:31:59.580Z,33.8
2018-12-30T08:32:48.306Z,33.5
2018-12-30T08:33:39.475Z,33.1
2018-12-30T08:34:29.815Z,32.8
2018-12-30T08:35:18.499Z,32.6
2018-12-30T08:36:09.074Z,32.3
2018-12-30T08:36:58.959Z,32.1
2018-12-30T08:37:50.317Z,31.9
2018-12-30T08:38:40.592Z,31.8
2018-12-30T08:39:29.365Z,31.6
2018-12-30T08:40:19.931Z,31.4
2018-12-30T08:41:09.926Z,31.3
2018-12-30T08:41:59.506Z,31.1
2018-12-30T08:42:49.812Z,30.9
2018-12-30T08:43:39.431Z,30.7
2018-12-30T08:44:30.584Z,30.6
2018-12-30T08:45:22.002Z,30.3
2018-12-30T08:46:10.412Z,29.5
2018-12-30T08:47:02.202Z,30.3
2018-12-30T08:47:50.789Z,30.9
2018-12-30T08:48:41.581Z,31.3
2018-12-30T08:49:30.604Z,31.6
2018-12-30T08:50:21.420Z,31.9
2018-12-30T08:51:12.479Z,32.3
2018-12-30T08:52:01.079Z,32.6
2018-12-30T08:52:50.906Z,32.8
2018-12-30T08:53:42.978Z,33.1
2018-12-30T08:54:31.682Z,33.3
2018-12-30T08:55:20.725Z,33.4
2018-12-30T08:56:10.493Z,33.6
2018-12-30T08:57:00.753Z,33.8
2018-12-30T08:57:51.650Z,33.9
2018-12-30T08:58:42.213Z,34
2018-12-30T08:59:31.030Z,34.1
2018-12-30T09:00:20.230Z,34.3
2018-12-30T09:16:59.667Z,30.6
2018-12-30T09:17:49.418Z,31.2
2018-12-30T09:18:39.483Z,31.6
2018-12-30T09:19:29.109Z,31.9
2018-12-30T09:20:19.075Z,32.3
2018-12-30T09:21:09.910Z,32.6
2018-12-30T09:21:59.765Z,32.7
2018-12-30T09:22:49.862Z,31.8
2018-12-30T09:23:47.389Z,30.3
2018-12-30T09:24:29.837Z,28.1
2018-12-30T09:25:19.619Z,27
2018-12-30T09:26:09.389Z,26.9
2018-12-30T09:27:00.397Z,27.3
2018-12-30T09:27:50.677Z,28.7
2018-12-30T09:28:39.008Z,29.8
2018-12-30T09:29:29.866Z,30.6
2018-12-30T09:30:20.481Z,31.3
2018-12-30T09:31:09.487Z,31.9
2018-12-30T09:32:00.590Z,32.3
2018-12-30T09:32:50.694Z,32.6
2018-12-30T09:33:40.474Z,32.9
2018-12-30T09:34:30.839Z,33.2
2018-12-30T09:35:20.829Z,33.4
2018-12-30T09:36:09.779Z,33.6
2018-12-30T09:37:02.651Z,33.8
2018-12-30T09:37:50.431Z,34
2018-12-30T09:38:41.666Z,34.1
2018-12-30T09:39:30.014Z,34.3
2018-12-30T09:40:20.647Z,34.4
2018-12-30T09:41:10.849Z,34
2018-12-30T09:42:03.019Z,33.8
2018-12-30T09:42:50.533Z,33.4
2018-12-30T09:43:41.171Z,33.3
2018-12-30T09:44:30.943Z,33
2018-12-30T09:45:21.086Z,32.8
2018-12-30T09:46:09.966Z,32.6
2018-12-30T09:47:00.521Z,32.5
2018-12-30T09:47:52.190Z,32.3
2018-12-30T09:48:43.456Z,32.1
2018-12-30T09:49:31.802Z,31.9
2018-12-30T09:50:21.873Z,31.8
2018-12-30T09:51:11.721Z,31.8
2018-12-30T09:52:03.114Z,31.4
2018-12-30T09:52:50.663Z,31.1
2018-12-30T09:53:49.218Z,30.9
2018-12-30T09:54:31.140Z,30.7
2018-12-30T09:55:22.769Z,30.6
2018-12-30T09:56:11.417Z,29.6
2018-12-30T09:57:01.826Z,30.3
2018-12-30T09:57:51.755Z,31.1
2018-12-30T09:58:41.149Z,31.6
2018-12-30T09:59:31.486Z,31.9
2018-12-30T10:00:22.798Z,32.1
2018-12-30T10:01:11.282Z,32.3
2018-12-30T10:02:01.020Z,32.6
2018-12-30T10:02:52.719Z,32.8
2018-12-30T10:03:42.613Z,33
2018-12-30T10:04:32.280Z,33.2
2018-12-30T10:05:22.394Z,33.4
2018-12-30T10:06:11.844Z,33.6
2018-12-30T10:07:02.149Z,33.8
2018-12-30T10:07:53.062Z,33.9
2018-12-30T10:08:43.484Z,34.1
2018-12-30T10:09:32.172Z,34.2
2018-12-30T10:10:22.129Z,34.3
2018-12-30T10:11:13.007Z,33.8
2018-12-30T10:12:02.055Z,33.5
2018-12-30T10:12:53.364Z,33.1
2018-12-30T10:13:42.474Z,32.9
2018-12-30T10:14:33.786Z,32.6
2018-12-30T10:15:22.484Z,32.4
2018-12-30T10:16:13.375Z,32.2
2018-12-30T10:17:03.511Z,32
2018-12-30T10:17:53.447Z,31.8
2018-12-30T10:18:43.859Z,31.7
2018-12-30T10:19:32.991Z,31.5
2018-12-30T10:20:22.229Z,31.4
2018-12-30T10:21:14.044Z,31.1
2018-12-30T10:22:02.931Z,30.9
2018-12-30T10:23:00.502Z,30.8
2018-12-30T10:23:44.779Z,30.6
2018-12-30T10:24:33.154Z,30.2
2018-12-30T10:25:23.191Z,29.6
2018-12-30T10:26:13.499Z,30.4
2018-12-30T10:27:03.560Z,31.2
2018-12-30T10:27:55.270Z,31.6
2018-12-30T10:28:44.166Z,31.9
2018-12-30T10:29:33.729Z,32.1
2018-12-30T10:30:24.111Z,32.3
2018-12-30T10:31:13.548Z,32.6
2018-12-30T10:32:04.434Z,32.8
2018-12-30T10:32:54.581Z,33
2018-12-30T10:33:44.855Z,33.3
2018-12-30T10:34:34.983Z,33.4
2018-12-30T10:35:24.946Z,33.6
2018-12-30T10:36:13.638Z,33.8
2018-12-30T10:37:04.045Z,33.9
2018-12-30T10:37:55.672Z,34.1
2018-12-30T10:38:45.246Z,34.2
2018-12-30T10:39:35.298Z,34.3
2018-12-30T10:40:25.647Z,33.7
2018-12-30T10:41:14.793Z,33.4
2018-12-30T10:42:05.963Z,33.1
2018-12-30T10:42:55.463Z,32.9
2018-12-30T10:43:45.050Z,32.6
2018-12-30T10:44:35.282Z,32.4
2018-12-30T10:45:25.087Z,32.3
2018-12-30T10:46:15.080Z,32.1
2018-12-30T10:47:05.432Z,31.9
2018-12-30T10:47:55.243Z,31.8
2018-12-30T10:48:45.572Z,31.6
2018-12-30T10:49:35.069Z,31.6
2018-12-30T10:50:25.547Z,31.2
2018-12-30T10:51:15.812Z,31
2018-12-30T10:52:05.779Z,30.8
2018-12-30T10:52:55.357Z,30.7
2018-12-30T10:53:45.249Z,30.3
2018-12-30T10:54:34.432Z,29.7
2018-12-30T10:55:25.992Z,30.6
2018-12-30T10:56:16.162Z,31.1
2018-12-30T10:57:06.497Z,31.4
2018-12-30T10:57:55.139Z,31.8
2018-12-30T10:58:46.012Z,32.1
2018-12-30T10:59:36.310Z,32.3
2018-12-30T11:00:25.871Z,32.6
2018-12-30T11:01:16.139Z,32.9
2018-12-30T11:02:05.961Z,33.1
2018-12-30T11:02:56.274Z,33.3
2018-12-30T11:03:45.566Z,33.4
2018-12-30T11:04:35.963Z,33.6
2018-12-30T11:05:25.896Z,33.8
2018-12-30T11:06:15.468Z,33.9
2018-12-30T11:07:06.576Z,34.1
2018-12-30T11:07:56.691Z,34.2
2018-12-30T11:08:46.778Z,34.3
2018-12-30T11:09:37.066Z,33.8
2018-12-30T11:10:26.778Z,33.6
2018-12-30T11:11:16.851Z,33.2
2018-12-30T11:12:07.012Z,32.9
2018-12-30T11:12:56.682Z,32.6
2018-12-30T11:13:47.593Z,32.4
2018-12-30T11:14:37.348Z,32.2
2018-12-30T11:15:27.140Z,32
2018-12-30T11:16:17.183Z,31.8
2018-12-30T11:17:07.792Z,31.6
2018-12-30T11:17:57.108Z,31.5
2018-12-30T11:18:48.882Z,31.4
2018-12-30T11:19:36.400Z,31.1
2018-12-30T11:20:28.360Z,30.9
2018-12-30T11:21:18.405Z,30.8
2018-12-30T11:22:06.810Z,30.6
2018-12-30T11:22:57.600Z,30.5
2018-12-30T11:23:48.040Z,29.6
2018-12-30T11:24:39.760Z,30.3
2018-12-30T11:25:27.860Z,31.1
2018-12-30T11:26:17.940Z,31.7
2018-12-30T11:27:08.472Z,31.9
2018-12-30T11:27:58.542Z,32.1
2018-12-30T11:28:48.107Z,32.3
2018-12-30T11:29:38.039Z,32.5
2018-12-30T11:30:28.527Z,31.8
2018-12-30T11:31:20.194Z,30.9
2018-12-30T11:32:08.319Z,29.3
2018-12-30T11:32:57.464Z,27.6
2018-12-30T11:33:47.576Z,26.5
2018-12-30T11:34:38.385Z,26.4
2018-12-30T11:35:29.819Z,27
2018-12-30T11:36:20.311Z,28.5
2018-12-30T11:37:08.704Z,29.8
2018-12-30T11:37:58.606Z,30.6
2018-12-30T11:38:47.621Z,31.2
2018-12-30T11:39:38.626Z,31.7
2018-12-30T11:40:28.823Z,32.1
2018-12-30T11:41:18.871Z,32.4
2018-12-30T11:42:07.753Z,32.8
2018-12-30T11:43:00.096Z,33
2018-12-30T11:43:48.278Z,33.3
2018-12-30T11:44:39.919Z,33.5
2018-12-30T11:45:29.153Z,33.7
2018-12-30T11:46:20.315Z,33.8
2018-12-30T11:47:12.060Z,34
2018-12-30T11:47:59.665Z,34.1
2018-12-30T11:48:50.475Z,34.3
2018-12-30T11:49:39.745Z,34.3
2018-12-30T11:50:28.923Z,33.8
2018-12-30T11:51:19.390Z,33.5
2018-12-30T11:52:09.645Z,33.1
2018-12-30T11:52:59.700Z,32.8
2018-12-30T11:53:50.321Z,32.6
2018-12-30T11:54:39.781Z,32.3
2018-12-30T11:55:29.840Z,32.1
2018-12-30T11:56:20.172Z,31.9
2018-12-30T11:57:09.967Z,31.8
2018-12-30T11:57:59.745Z,31.6
2018-12-30T11:58:50.150Z,31.4